createdAt,value
2017-11-05T00:00:15.130Z,68.10
2017-11-05T00:02:41.354Z,68.50
2017-11-05T00:05:07.650Z,67.70
2017-11-05T00:07:33.912Z,67.80
2017-11-05T00:10:01.176Z,67.80
2017-11-05T00:12:27.420Z,68.60
2017-11-05T00:14:53.843Z,68.70
2017-11-05T00:17:20.155Z,68.30
2017-11-05T00:19:46.386Z,69.00
2017-11-05T00:22:13.461Z,68.60
2017-11-05T00:24:39.698Z,68.10
2017-11-05T00:27:06.174Z,68.10
2017-11-05T00:29:33.205Z,68.00
2017-11-05T00:32:00.220Z,68.40
2017-11-05T00:34:26.468Z,68.30
2017-11-05T00:36:52.725Z,67.90
2017-11-05T00:39:18.997Z,68.50
2017-11-05T00:41:45.331Z,68.60
2017-11-05T00:44:11.556Z,68.10
2017-11-05T00:46:37.852Z,68.10
2017-11-05T00:49:04.068Z,68.10
2017-11-05T00:51:30.310Z,68.10
2017-11-05T00:53:56.644Z,68.30
2017-11-05T00:56:22.868Z,68.30
2017-11-05T00:58:49.152Z,68.60
2017-11-05T01:01:15.407Z,68.50
2017-11-05T01:03:42.365Z,68.60
2017-11-05T01:06:08.558Z,68.60
2017-11-05T01:08:34.768Z,69.00
2017-11-05T01:11:01.000Z,69.40
2017-11-05T01:13:27.474Z,69.50
2017-11-05T01:15:53.906Z,70.00
2017-11-05T01:18:20.122Z,70.20
2017-11-05T01:20:46.386Z,70.00
2017-11-05T01:23:12.628Z,70.00
2017-11-05T01:25:38.863Z,70.00
2017-11-05T01:28:05.163Z,70.20
2017-11-05T01:30:31.437Z,70.70
2017-11-05T01:32:57.670Z,70.80
2017-11-05T01:35:24.005Z,71.00
2017-11-05T01:37:50.348Z,71.50
2017-11-05T01:40:16.625Z,71.50
2017-11-05T01:42:42.904Z,71.60
2017-11-05T01:45:09.228Z,71.60
2017-11-05T01:47:35.514Z,71.70
2017-11-05T01:50:01.795Z,71.70
2017-11-05T01:52:28.013Z,71.70
2017-11-05T01:54:54.317Z,71.70
2017-11-05T01:57:20.556Z,71.70
2017-11-05T01:59:46.859Z,71.70
2017-11-05T02:02:13.122Z,71.80
2017-11-05T02:04:39.445Z,71.80
2017-11-05T02:07:05.692Z,72.10
2017-11-05T02:09:31.924Z,72.50
2017-11-05T02:11:58.159Z,72.60
2017-11-05T02:14:24.515Z,72.80
2017-11-05T02:16:50.786Z,73.10
2017-11-05T02:19:17.777Z,73.60
2017-11-05T02:21:44.094Z,73.60
2017-11-05T02:24:10.273Z,74.10
2017-11-05T02:26:36.501Z,74.70
2017-11-05T02:29:02.747Z,75.40
2017-11-05T02:31:29.044Z,76.00
2017-11-05T02:33:55.265Z,76.10
2017-11-05T02:36:22.938Z,76.80
2017-11-05T02:38:49.939Z,77.40
2017-11-05T02:41:16.443Z,77.40
2017-11-05T02:43:46.017Z,77.20
2017-11-05T02:46:12.402Z,77.50
2017-11-05T02:48:38.704Z,77.50
2017-11-05T02:51:05.012Z,77.50
2017-11-05T02:53:31.253Z,77.50
2017-11-05T02:55:58.270Z,77.70
2017-11-05T02:58:24.537Z,77.70
2017-11-05T03:00:50.830Z,78.40
2017-11-05T03:03:17.090Z,78.20
2017-11-05T03:05:43.325Z,78.40
2017-11-05T03:08:09.647Z,78.20
2017-11-05T03:10:35.894Z,78.10
2017-11-05T03:13:02.285Z,77.80
2017-11-05T03:15:29.313Z,77.90
2017-11-05T03:17:55.610Z,77.90
2017-11-05T03:20:22.624Z,78.00
2017-11-05T03:22:49.539Z,78.00
2017-11-05T03:25:15.880Z,78.20
2017-11-05T03:27:42.227Z,78.00
2017-11-05T03:30:09.192Z,77.90
2017-11-05T03:32:35.426Z,77.90
2017-11-05T03:35:01.677Z,77.90
2017-11-05T03:37:27.889Z,78.30
2017-11-05T03:39:54.146Z,78.40
2017-11-05T03:42:20.376Z,78.90
2017-11-05T03:44:46.637Z,78.90
2017-11-05T03:47:13.669Z,79.00
2017-11-05T03:49:39.923Z,79.00
2017-11-05T03:52:06.246Z,79.20
2017-11-05T03:54:32.615Z,80.00
2017-11-05T03:56:58.853Z,80.50
2017-11-05T03:59:25.134Z,80.60
2017-11-05T04:01:51.378Z,80.50
2017-11-05T04:04:18.367Z,80.20
2017-11-05T04:06:44.565Z,80.20
2017-11-05T04:09:10.864Z,79.70
2017-11-05T04:11:37.083Z,79.30
2017-11-05T04:14:03.309Z,79.30
2017-11-05T04:16:29.604Z,79.20
2017-11-05T04:18:55.828Z,79.20
2017-11-05T04:21:22.091Z,79.10
2017-11-05T04:23:48.316Z,79.30
2017-11-05T04:26:14.564Z,79.30
2017-11-05T04:28:40.788Z,79.20
2017-11-05T04:31:07.065Z,78.90
2017-11-05T04:33:33.289Z,79.80
2017-11-05T04:35:59.561Z,80.60
2017-11-05T04:38:25.792Z,80.90
2017-11-05T04:40:52.838Z,80.70
2017-11-05T04:43:19.853Z,80.50
2017-11-05T04:45:46.101Z,80.50
2017-11-05T04:48:12.365Z,80.70
2017-11-05T04:50:38.589Z,80.90
2017-11-05T04:53:04.949Z,80.00
2017-11-05T04:55:32.239Z,80.00
2017-11-05T04:57:58.898Z,80.00
2017-11-05T05:00:25.139Z,80.20
2017-11-05T05:02:51.363Z,80.40
2017-11-05T05:05:17.581Z,80.70
2017-11-05T05:07:43.887Z,80.70
2017-11-05T05:10:10.157Z,80.90
2017-11-05T05:12:37.169Z,81.30
2017-11-05T05:15:03.454Z,81.30
2017-11-05T05:17:29.732Z,81.40
2017-11-05T05:19:56.025Z,81.40
2017-11-05T05:22:22.356Z,81.50
2017-11-05T05:24:48.635Z,81.60
2017-11-05T05:27:14.854Z,81.60
2017-11-05T05:29:41.091Z,81.60
2017-11-05T05:32:08.056Z,81.50
2017-11-05T05:34:34.306Z,81.50
2017-11-05T05:37:00.606Z,81.70
2017-11-05T05:39:26.829Z,81.60
2017-11-05T05:41:53.148Z,81.60
2017-11-05T05:44:19.410Z,81.60
2017-11-05T05:46:45.715Z,81.60
2017-11-05T05:49:12.027Z,81.60
2017-11-05T05:51:38.303Z,81.40
2017-11-05T05:54:04.568Z,81.40
2017-11-05T05:56:30.814Z,81.50
2017-11-05T05:58:57.109Z,81.50
2017-11-05T06:01:23.385Z,81.40
2017-11-05T06:03:49.679Z,81.50
2017-11-05T06:06:15.992Z,81.30
2017-11-05T06:08:42.241Z,81.40
2017-11-05T06:11:08.573Z,81.40
2017-11-05T06:13:34.834Z,81.40
2017-11-05T06:16:01.146Z,81.40
2017-11-05T06:18:27.375Z,81.50
2017-11-05T06:20:53.576Z,81.40
2017-11-05T06:23:19.869Z,81.20
2017-11-05T06:25:46.159Z,81.30
2017-11-05T06:28:12.388Z,81.30
2017-11-05T06:30:38.616Z,81.30
2017-11-05T06:33:04.994Z,81.20
2017-11-05T06:35:33.362Z,81.10
2017-11-05T06:38:01.598Z,81.00
2017-11-05T06:40:27.818Z,81.00
2017-11-05T06:42:54.089Z,81.00
2017-11-05T06:45:20.341Z,81.00
2017-11-05T06:47:48.374Z,81.00
2017-11-05T06:50:14.611Z,81.00
2017-11-05T06:52:40.905Z,81.00
2017-11-05T06:55:07.258Z,80.90
2017-11-05T06:57:33.505Z,80.90
2017-11-05T06:59:59.766Z,80.90
2017-11-05T07:02:26.064Z,80.80
2017-11-05T07:04:52.407Z,80.80
2017-11-05T07:07:19.368Z,80.60
2017-11-05T07:09:45.728Z,80.60
2017-11-05T07:12:13.335Z,80.70
2017-11-05T07:14:39.939Z,80.60
2017-11-05T07:17:06.196Z,80.70
2017-11-05T07:19:32.558Z,80.60
2017-11-05T07:21:58.931Z,80.40
2017-11-05T07:24:25.206Z,80.50
2017-11-05T07:26:51.405Z,80.30
2017-11-05T07:29:17.655Z,80.00
2017-11-05T07:31:44.620Z,80.30
2017-11-05T07:34:10.878Z,80.30
2017-11-05T07:36:37.113Z,80.30
2017-11-05T07:39:03.381Z,80.30
2017-11-05T07:41:30.376Z,80.40
2017-11-05T07:43:56.585Z,80.30
2017-11-05T07:46:22.881Z,80.10
2017-11-05T07:48:49.237Z,80.00
2017-11-05T07:51:15.469Z,80.00
2017-11-05T07:53:42.457Z,80.00
2017-11-05T07:56:08.720Z,80.00
2017-11-05T07:58:35.689Z,80.00
2017-11-05T08:01:01.937Z,80.00
2017-11-05T08:03:28.320Z,80.00
2017-11-05T08:05:54.637Z,79.90
2017-11-05T08:08:21.201Z,80.00
2017-11-05T08:10:47.570Z,80.00
2017-11-05T08:13:13.859Z,80.10
2017-11-05T08:15:40.127Z,80.10
2017-11-05T08:18:06.331Z,80.30
2017-11-05T08:20:32.605Z,80.40
2017-11-05T08:22:58.876Z,80.50
2017-11-05T08:25:25.089Z,80.50
2017-11-05T08:27:51.291Z,80.70
2017-11-05T08:30:17.575Z,80.60
2017-11-05T08:32:43.807Z,80.70
2017-11-05T08:35:10.066Z,80.80
2017-11-05T08:37:36.329Z,80.90
2017-11-05T08:40:02.600Z,80.90
2017-11-05T08:42:28.925Z,81.00
2017-11-05T08:44:55.874Z,80.80
2017-11-05T08:47:22.209Z,80.80
2017-11-05T08:49:48.407Z,80.90
2017-11-05T08:52:14.640Z,80.80
2017-11-05T08:54:40.909Z,79.40
2017-11-05T08:57:07.185Z,78.90
2017-11-05T08:59:33.503Z,77.20
2017-11-05T09:01:59.741Z,77.00
2017-11-05T09:04:26.026Z,74.00
2017-11-05T09:06:52.404Z,71.80
2017-11-05T09:09:18.674Z,72.70
2017-11-05T09:11:45.712Z,68.40
2017-11-05T09:14:11.967Z,68.50
2017-11-05T09:16:38.192Z,73.10
2017-11-05T09:19:04.514Z,70.30
2017-11-05T09:21:30.728Z,70.10
2017-11-05T09:23:57.005Z,69.90
2017-11-05T09:26:23.356Z,69.70
2017-11-05T09:28:49.650Z,69.80
2017-11-05T09:31:15.914Z,71.30
2017-11-05T09:33:42.206Z,71.50
2017-11-05T09:36:08.480Z,71.70
2017-11-05T09:38:35.439Z,70.50
2017-11-05T09:41:01.721Z,70.50
2017-11-05T09:43:27.979Z,69.40
2017-11-05T09:45:54.209Z,72.00
2017-11-05T09:48:20.493Z,71.70
2017-11-05T09:50:46.717Z,73.00
2017-11-05T09:53:12.991Z,71.00
2017-11-05T09:55:39.226Z,70.30
2017-11-05T09:58:05.653Z,71.10
2017-11-05T10:00:31.983Z,71.10
2017-11-05T10:02:58.242Z,69.60
2017-11-05T10:05:24.538Z,72.90
2017-11-05T10:07:50.777Z,72.30
2017-11-05T10:10:16.978Z,73.40
2017-11-05T10:12:43.373Z,71.80
2017-11-05T10:15:09.625Z,73.40
2017-11-05T10:17:35.932Z,73.20
2017-11-05T10:20:02.177Z,72.60
2017-11-05T10:22:28.483Z,71.90
2017-11-05T10:24:55.578Z,73.60
2017-11-05T10:27:21.821Z,73.50
2017-11-05T10:29:48.149Z,72.50
2017-11-05T10:32:15.190Z,73.70
2017-11-05T10:34:42.540Z,73.50
2017-11-05T10:37:10.907Z,72.70
2017-11-05T10:39:37.175Z,73.60
2017-11-05T10:42:03.465Z,73.60
2017-11-05T10:44:29.833Z,74.60
2017-11-05T10:46:56.065Z,74.40
2017-11-05T10:49:22.439Z,74.80
2017-11-05T10:51:49.413Z,75.50
2017-11-05T10:54:16.819Z,75.50
2017-11-05T10:56:43.808Z,74.60
2017-11-05T10:59:11.183Z,74.60
2017-11-05T11:01:37.600Z,73.30
2017-11-05T11:04:05.285Z,74.30
2017-11-05T11:06:32.606Z,73.40
2017-11-05T11:08:59.022Z,73.40
2017-11-05T11:11:26.436Z,73.30
2017-11-05T11:13:52.907Z,73.30
2017-11-05T11:16:19.192Z,72.80
2017-11-05T11:18:45.764Z,72.80
2017-11-05T11:23:47.730Z,73.90
2017-11-05T11:26:13.996Z,74.10
2017-11-05T11:28:40.596Z,73.10
2017-11-05T11:31:07.229Z,73.10
2017-11-05T11:33:33.879Z,73.10
2017-11-05T11:36:01.133Z,73.90
2017-11-05T11:38:27.652Z,72.60
2017-11-05T11:40:54.469Z,72.10
2017-11-05T11:43:20.789Z,72.70
2017-11-05T11:45:47.125Z,73.10
2017-11-05T11:48:13.395Z,73.10
2017-11-05T11:50:39.636Z,73.10
2017-11-05T11:53:05.894Z,73.00
2017-11-05T11:55:32.931Z,73.00
2017-11-05T11:57:59.957Z,74.40
2017-11-05T12:00:26.186Z,74.40
2017-11-05T12:02:52.469Z,73.00
2017-11-05T12:05:18.778Z,74.20
2017-11-05T12:07:45.058Z,73.10
2017-11-05T12:10:13.040Z,72.60
2017-11-05T12:12:39.322Z,72.00
2017-11-05T12:15:05.653Z,72.20
2017-11-05T12:17:32.114Z,72.40
2017-11-05T12:19:58.366Z,71.80
2017-11-05T12:22:24.646Z,71.50
2017-11-05T12:24:50.960Z,71.90
2017-11-05T12:27:17.251Z,71.70
2017-11-05T12:29:43.535Z,70.70
2017-11-05T12:32:09.793Z,72.10
2017-11-05T12:34:36.238Z,71.20
2017-11-05T12:37:02.501Z,71.70
2017-11-05T12:39:28.818Z,72.00
2017-11-05T12:41:55.126Z,71.00
2017-11-05T12:44:21.409Z,70.00
2017-11-05T12:46:48.355Z,69.40
2017-11-05T12:49:14.647Z,69.30
2017-11-05T12:51:41.640Z,66.60
2017-11-05T12:54:08.034Z,66.60
2017-11-05T12:56:35.151Z,68.60
2017-11-05T12:59:01.647Z,67.40
2017-11-05T13:01:28.013Z,67.00
2017-11-05T13:03:54.315Z,69.20
2017-11-05T13:06:20.521Z,65.40
2017-11-05T13:08:46.855Z,66.70
2017-11-05T13:11:13.173Z,66.60
2017-11-05T13:13:39.453Z,67.00
2017-11-05T13:16:05.891Z,66.60
2017-11-05T13:18:32.140Z,66.80
2017-11-05T13:20:58.495Z,67.00
2017-11-05T13:23:24.736Z,68.30
2017-11-05T13:25:51.024Z,68.10
2017-11-05T13:28:17.312Z,68.20
2017-11-05T13:30:43.576Z,67.90
2017-11-05T13:33:09.840Z,66.80
2017-11-05T13:35:36.136Z,66.30
2017-11-05T13:38:02.502Z,65.30
2017-11-05T13:40:29.531Z,64.30
2017-11-05T13:42:55.935Z,64.30
2017-11-05T13:45:22.309Z,63.90
2017-11-05T13:47:48.626Z,63.00
2017-11-05T13:50:14.994Z,64.00
2017-11-05T13:52:42.067Z,62.90
2017-11-05T13:55:08.294Z,62.90
2017-11-05T13:57:34.557Z,63.80
2017-11-05T14:00:01.638Z,63.80
2017-11-05T14:02:27.869Z,63.70
2017-11-05T14:04:54.245Z,62.90
2017-11-05T14:07:20.557Z,62.60
2017-11-05T14:09:46.826Z,62.90
2017-11-05T14:12:13.093Z,64.40
2017-11-05T14:14:39.365Z,62.80
2017-11-05T14:17:05.587Z,64.50
2017-11-05T14:19:32.588Z,64.10
2017-11-05T14:21:58.900Z,64.10
2017-11-05T14:24:25.289Z,63.90
2017-11-05T14:26:51.570Z,65.00
2017-11-05T14:29:18.621Z,64.40
2017-11-05T14:31:44.889Z,62.80
2017-11-05T14:34:11.146Z,62.80
2017-11-05T14:36:37.450Z,64.30
2017-11-05T14:39:04.003Z,64.50
2017-11-05T14:41:30.282Z,64.10
2017-11-05T14:43:57.331Z,64.10
2017-11-05T14:46:23.718Z,64.10
2017-11-05T14:48:49.990Z,64.40
2017-11-05T14:51:16.291Z,62.90
2017-11-05T14:53:42.553Z,63.60
2017-11-05T14:56:08.886Z,63.00
2017-11-05T14:58:35.170Z,63.70
2017-11-05T15:01:01.559Z,62.80
2017-11-05T15:03:27.954Z,62.80
2017-11-05T15:05:54.346Z,62.80
2017-11-05T15:08:20.681Z,64.60
2017-11-05T15:10:46.975Z,63.80
2017-11-05T15:13:14.312Z,62.80
2017-11-05T15:15:40.611Z,62.80
2017-11-05T15:18:06.927Z,62.00
2017-11-05T15:20:33.896Z,62.80
2017-11-05T15:23:00.257Z,61.40
2017-11-05T15:25:26.584Z,62.70
2017-11-05T15:27:53.110Z,62.70
2017-11-05T15:30:19.539Z,63.30
2017-11-05T15:32:45.829Z,62.70
2017-11-05T15:35:12.152Z,62.40
2017-11-05T15:37:38.557Z,62.60
2017-11-05T15:40:05.174Z,62.60
2017-11-05T15:42:31.489Z,62.70
2017-11-05T15:44:57.798Z,61.10
2017-11-05T15:47:24.489Z,62.40
2017-11-05T15:49:51.721Z,62.50
2017-11-05T15:52:18.256Z,62.50
2017-11-05T15:54:44.617Z,62.50
2017-11-05T15:57:11.346Z,62.50
2017-11-05T15:59:37.681Z,63.90
2017-11-05T16:02:04.012Z,64.40
2017-11-05T16:04:30.852Z,64.50
2017-11-05T16:06:57.159Z,64.10
2017-11-05T16:09:23.413Z,64.40
2017-11-05T16:11:49.694Z,64.80
2017-11-05T16:14:16.045Z,63.80
2017-11-05T16:16:42.529Z,63.80
2017-11-05T16:19:08.776Z,62.30
2017-11-05T16:21:35.045Z,63.10
2017-11-05T16:24:01.376Z,64.50
2017-11-05T16:26:27.885Z,63.60
2017-11-05T16:28:54.133Z,63.80
2017-11-05T16:31:20.402Z,65.10
2017-11-05T16:33:46.849Z,66.20
2017-11-05T16:36:14.173Z,66.90
2017-11-05T16:38:41.455Z,66.50
2017-11-05T16:41:07.826Z,66.90
2017-11-05T16:43:34.073Z,66.90
2017-11-05T16:46:00.349Z,66.80
2017-11-05T16:48:27.362Z,67.30
2017-11-05T16:50:53.619Z,67.30
2017-11-05T16:53:20.245Z,67.60
2017-11-05T16:55:46.541Z,68.10
2017-11-05T16:58:12.780Z,67.00
2017-11-05T17:00:39.096Z,66.40
2017-11-05T17:03:05.425Z,66.40
2017-11-05T17:05:31.700Z,66.80
2017-11-05T17:07:58.745Z,63.90
2017-11-05T17:10:25.024Z,63.90
2017-11-05T17:12:51.362Z,64.00
2017-11-05T17:15:17.605Z,65.10
2017-11-05T17:17:43.923Z,65.00
2017-11-05T17:20:10.221Z,64.90
2017-11-05T17:22:36.793Z,64.70
2017-11-05T17:25:03.125Z,63.70
2017-11-05T17:27:29.539Z,64.10
2017-11-05T17:29:56.972Z,63.80
2017-11-05T17:32:24.001Z,65.20
2017-11-05T17:34:50.217Z,65.20
2017-11-05T17:37:16.636Z,66.00
2017-11-05T17:39:43.023Z,66.40
2017-11-05T17:42:09.555Z,65.50
2017-11-05T17:44:35.918Z,65.40
2017-11-05T17:47:02.965Z,65.30
2017-11-05T17:49:29.276Z,65.30
2017-11-05T17:51:56.440Z,66.00
2017-11-05T17:54:22.682Z,66.00
2017-11-05T17:56:48.941Z,66.00
2017-11-05T17:59:16.046Z,67.30
2017-11-05T18:01:42.294Z,67.30
2017-11-05T18:04:08.640Z,65.30
2017-11-05T18:06:34.953Z,60.00
2017-11-05T18:09:01.181Z,57.30
2017-11-05T18:11:27.413Z,57.70
2017-11-05T18:13:53.709Z,59.10
2017-11-05T18:16:20.073Z,59.20
2017-11-05T18:18:46.312Z,57.30
2017-11-05T18:21:12.584Z,57.50
2017-11-05T18:23:38.823Z,57.30
2017-11-05T18:26:05.815Z,56.40
2017-11-05T18:28:32.025Z,56.40
2017-11-05T18:30:58.449Z,57.50
2017-11-05T18:33:24.725Z,58.80
2017-11-05T18:35:50.963Z,57.90
2017-11-05T18:38:17.247Z,58.10
2017-11-05T18:40:43.577Z,57.90
2017-11-05T18:43:09.891Z,57.90
2017-11-05T18:45:36.477Z,57.40
2017-11-05T18:48:02.715Z,57.70
2017-11-05T18:50:29.247Z,58.10
2017-11-05T18:52:55.595Z,58.80
2017-11-05T18:55:22.901Z,58.10
2017-11-05T18:57:49.354Z,59.40
2017-11-05T19:00:15.581Z,58.80
2017-11-05T19:02:41.933Z,57.60
2017-11-05T19:05:08.241Z,57.20
2017-11-05T19:07:34.560Z,57.80
2017-11-05T19:10:01.549Z,58.10
2017-11-05T19:12:27.864Z,58.10
2017-11-05T19:14:54.229Z,57.00
2017-11-05T19:17:20.504Z,56.60
2017-11-05T19:19:46.941Z,57.60
2017-11-05T19:22:13.294Z,57.00
2017-11-05T19:24:39.667Z,57.00
2017-11-05T19:27:06.182Z,57.50
2017-11-05T19:29:32.564Z,57.90
2017-11-05T19:31:58.865Z,56.10
2017-11-05T19:34:25.238Z,57.20
2017-11-05T19:36:51.692Z,56.60
2017-11-05T19:39:17.993Z,57.00
2017-11-05T19:41:44.337Z,56.90
2017-11-05T19:44:10.558Z,57.60
2017-11-05T19:46:36.843Z,58.80
2017-11-05T19:49:03.395Z,58.10
2017-11-05T19:51:29.700Z,57.60
2017-11-05T19:53:55.945Z,57.10
2017-11-05T19:56:22.310Z,57.80
2017-11-05T19:58:48.709Z,59.50
2017-11-05T20:01:15.098Z,58.50
2017-11-05T20:03:41.415Z,58.30
2017-11-05T20:06:07.742Z,59.00
2017-11-05T20:08:34.075Z,58.40
2017-11-05T20:11:00.613Z,60.20
2017-11-05T20:13:27.134Z,60.60
2017-11-05T20:15:53.439Z,61.20
2017-11-05T20:18:20.554Z,61.60
2017-11-05T20:20:47.600Z,60.50
2017-11-05T20:23:14.008Z,60.10
2017-11-05T20:25:40.467Z,60.70
2017-11-05T20:28:06.757Z,61.20
2017-11-05T20:33:19.290Z,60.60
2017-11-05T20:41:37.642Z,59.10
2017-11-05T20:44:04.144Z,60.80
2017-11-05T20:46:31.585Z,61.30
2017-11-05T20:48:57.897Z,60.30
2017-11-05T20:51:29.468Z,61.30
2017-11-05T20:53:56.851Z,58.60
2017-11-05T20:56:23.095Z,58.50
2017-11-05T20:58:49.819Z,58.70
2017-11-05T21:01:16.664Z,59.80
2017-11-05T21:03:43.983Z,60.10
2017-11-05T21:06:10.309Z,60.30
2017-11-05T21:08:36.713Z,60.00
2017-11-05T21:11:02.999Z,60.50
2017-11-05T21:13:29.974Z,59.60
2017-11-05T21:15:56.295Z,59.60
2017-11-05T21:18:22.610Z,59.60
2017-11-05T21:20:48.912Z,60.60
2017-11-05T21:23:15.228Z,60.00
2017-11-05T21:25:41.509Z,60.40
2017-11-05T21:28:07.828Z,61.10
2017-11-05T21:30:34.150Z,60.70
2017-11-05T21:33:01.493Z,60.40
2017-11-05T21:35:27.773Z,59.70
2017-11-05T21:37:56.213Z,61.10
2017-11-05T21:40:25.728Z,60.60
2017-11-05T21:42:52.171Z,60.00
2017-11-05T21:45:18.470Z,61.00
2017-11-05T21:47:48.717Z,61.00
2017-11-05T21:50:16.993Z,61.00
2017-11-05T21:52:43.330Z,61.30
2017-11-05T21:55:09.657Z,62.20
2017-11-05T21:57:37.798Z,62.60
2017-11-05T22:00:04.366Z,63.50
2017-11-05T22:02:30.929Z,63.50
2017-11-05T22:04:57.315Z,63.20
2017-11-05T22:07:23.653Z,62.30
2017-11-05T22:09:50.173Z,61.50
2017-11-05T22:12:17.664Z,62.20
2017-11-05T22:14:45.483Z,61.70
2017-11-05T22:17:15.670Z,61.70
2017-11-05T22:19:41.945Z,61.50
2017-11-05T22:22:08.203Z,61.10
2017-11-05T22:24:36.031Z,61.80
2017-11-05T22:27:02.612Z,61.70
2017-11-05T22:29:29.683Z,61.40
2017-11-05T22:31:56.201Z,62.20
2017-11-05T22:34:22.550Z,61.10
2017-11-05T22:36:48.957Z,60.80
2017-11-05T22:39:15.826Z,60.70
2017-11-05T22:41:42.204Z,60.90
2017-11-05T22:44:08.630Z,60.90
2017-11-05T22:46:36.090Z,61.80
2017-11-05T22:49:02.621Z,61.80
2017-11-05T22:51:29.025Z,62.90
2017-11-05T22:53:55.354Z,63.20
2017-11-05T22:56:21.578Z,64.10
2017-11-05T22:58:48.680Z,63.70
2017-11-05T23:01:15.158Z,63.70
2017-11-05T23:03:41.468Z,63.70
2017-11-05T23:06:07.832Z,64.40
2017-11-05T23:08:34.204Z,65.00
2017-11-05T23:11:00.580Z,65.40
2017-11-05T23:13:26.988Z,65.40
2017-11-05T23:15:53.381Z,65.40
2017-11-05T23:18:20.421Z,65.50
2017-11-05T23:20:46.695Z,65.50
2017-11-05T23:23:12.962Z,65.20
2017-11-05T23:25:39.257Z,65.80
2017-11-05T23:28:05.538Z,65.90
2017-11-05T23:30:32.587Z,66.00
2017-11-05T23:32:58.881Z,66.00
2017-11-05T23:35:25.149Z,65.50
2017-11-05T23:37:51.421Z,65.40
2017-11-05T23:40:17.679Z,65.80
2017-11-05T23:42:43.958Z,66.00
2017-11-05T23:45:10.195Z,66.20
2017-11-05T23:47:36.381Z,65.60
2017-11-05T23:50:02.649Z,66.50
2017-11-05T23:52:28.902Z,66.20
2017-11-05T23:54:55.857Z,66.80
2017-11-05T23:57:22.074Z,66.70
2017-11-05T23:59:48.297Z,66.90
